PKHXP RJFF-RJFM
Flight info
| Callsign | PKHXP |
|---|---|
| Flight time | 1h 21m |
| Altitude | 7500 |
| Route | YAMGA KUE ESKAP KROMA ENBEN MZE |
| Aircraft | C172/L-SFG/C |
Departure
| Time | 2026-04-28 09:14 |
|---|---|
| Airport | Fukuoka Airport (RJFF) |
Arrival
| Time | 2026-04-28 10:36 |
|---|---|
| Airport | Miyazaki Airport (RJFM) |
| Time | Latitude | Longitude | Altitude | Speed | Heading |
|---|---|---|---|---|---|
| 2026-04-28 08:53 | 33.58523 | 130.45453 | 39 ft | 0 kts | 60° |
| 2026-04-28 09:09 | 33.58521 | 130.45454 | 39 ft | 1 kts | 208° |
| 2026-04-28 09:09 | 33.58521 | 130.45453 | 39 ft | 0 kts | 276° |
| 2026-04-28 09:10 | 33.58521 | 130.45451 | 39 ft | 1 kts | 275° |
| 2026-04-28 09:10 | 33.58502 | 130.45407 | 39 ft | 10 kts | 237° |
| 2026-04-28 09:11 | 33.58458 | 130.45390 | 39 ft | 7 kts | 144° |
| 2026-04-28 09:11 | 33.58382 | 130.45439 | 39 ft | 15 kts | 143° |
| 2026-04-28 09:11 | 33.58271 | 130.45514 | 39 ft | 21 kts | 151° |
| 2026-04-28 09:11 | 33.58143 | 130.45601 | 39 ft | 18 kts | 151° |
| 2026-04-28 09:12 | 33.58051 | 130.45666 | 39 ft | 11 kts | 150° |
| 2026-04-28 09:12 | 33.57980 | 130.45653 | 39 ft | 11 kts | 240° |
| 2026-04-28 09:12 | 33.57958 | 130.45604 | 39 ft | 0 kts | 241° |
| 2026-04-28 09:12 | 33.57939 | 130.45560 | 39 ft | 13 kts | 254° |
| 2026-04-28 09:13 | 33.58030 | 130.45451 | 39 ft | 33 kts | 331° |
| 2026-04-28 09:13 | 33.58366 | 130.45216 | 131 ft | 62 kts | 320° |
| 2026-04-28 09:13 | 33.58748 | 130.44937 | 317 ft | 67 kts | 322° |
| 2026-04-28 09:13 | 33.59151 | 130.44676 | 530 ft | 66 kts | 325° |
| 2026-04-28 09:14 | 33.59686 | 130.44611 | 586 ft | 88 kts | 3° |
| 2026-04-28 09:14 | 33.60229 | 130.45016 | 682 ft | 98 kts | 43° |
| 2026-04-28 09:14 | 33.60468 | 130.45770 | 732 ft | 102 kts | 83° |
| 2026-04-28 09:14 | 33.60280 | 130.46582 | 803 ft | 102 kts | 124° |
| 2026-04-28 09:15 | 33.59744 | 130.47080 | 891 ft | 96 kts | 163° |
| 2026-04-28 09:15 | 33.59174 | 130.47514 | 966 ft | 100 kts | 141° |
| 2026-04-28 09:15 | 33.58660 | 130.48080 | 1054 ft | 100 kts | 140° |
| 2026-04-28 09:15 | 33.58145 | 130.48656 | 1147 ft | 100 kts | 141° |
| 2026-04-28 09:16 | 33.57630 | 130.49222 | 1230 ft | 99 kts | 142° |
| 2026-04-28 09:16 | 33.57119 | 130.49773 | 1271 ft | 98 kts | 143° |
| 2026-04-28 09:16 | 33.56601 | 130.50330 | 1286 ft | 100 kts | 143° |
| 2026-04-28 09:16 | 33.56079 | 130.50888 | 1317 ft | 99 kts | 142° |
| 2026-04-28 09:17 | 33.55559 | 130.51447 | 1344 ft | 100 kts | 142° |
| 2026-04-28 09:17 | 33.55000 | 130.51910 | 1359 ft | 97 kts | 160° |
| 2026-04-28 09:17 | 33.54372 | 130.52245 | 1471 ft | 97 kts | 163° |
| 2026-04-28 09:17 | 33.53753 | 130.52551 | 1567 ft | 97 kts | 165° |
| 2026-04-28 09:18 | 33.53133 | 130.52846 | 1685 ft | 95 kts | 164° |
| 2026-04-28 09:18 | 33.52514 | 130.53134 | 1752 ft | 96 kts | 165° |
| 2026-04-28 09:18 | 33.51903 | 130.53416 | 1864 ft | 94 kts | 166° |
| 2026-04-28 09:18 | 33.51289 | 130.53696 | 1981 ft | 95 kts | 166° |
| 2026-04-28 09:19 | 33.50695 | 130.53969 | 2170 ft | 87 kts | 165° |
| 2026-04-28 09:19 | 33.50137 | 130.54228 | 2343 ft | 85 kts | 167° |
| 2026-04-28 09:19 | 33.49585 | 130.54483 | 2522 ft | 83 kts | 167° |
| 2026-04-28 09:19 | 33.49040 | 130.54733 | 2675 ft | 84 kts | 168° |
| 2026-04-28 09:20 | 33.48493 | 130.54980 | 2832 ft | 84 kts | 167° |
| 2026-04-28 09:20 | 33.47948 | 130.55228 | 2986 ft | 84 kts | 168° |
| 2026-04-28 09:20 | 33.47396 | 130.55478 | 3144 ft | 84 kts | 168° |
| 2026-04-28 09:20 | 33.46845 | 130.55728 | 3297 ft | 85 kts | 168° |
| 2026-04-28 09:21 | 33.46290 | 130.55977 | 3447 ft | 86 kts | 168° |
| 2026-04-28 09:21 | 33.45723 | 130.56233 | 3591 ft | 87 kts | 168° |
| 2026-04-28 09:21 | 33.45158 | 130.56488 | 3738 ft | 86 kts | 168° |
| 2026-04-28 09:21 | 33.44597 | 130.56743 | 3877 ft | 87 kts | 168° |
| 2026-04-28 09:22 | 33.44028 | 130.56999 | 4019 ft | 87 kts | 168° |
| 2026-04-28 09:22 | 33.43459 | 130.57257 | 4162 ft | 87 kts | 168° |
| 2026-04-28 09:22 | 33.42891 | 130.57513 | 4296 ft | 88 kts | 169° |
| 2026-04-28 09:22 | 33.42320 | 130.57771 | 4436 ft | 88 kts | 169° |
| 2026-04-28 09:23 | 33.41742 | 130.58031 | 4559 ft | 87 kts | 168° |
| 2026-04-28 09:23 | 33.41172 | 130.58285 | 4667 ft | 86 kts | 168° |
| 2026-04-28 09:23 | 33.40619 | 130.58539 | 4783 ft | 84 kts | 169° |
| 2026-04-28 09:23 | 33.40076 | 130.58783 | 4886 ft | 84 kts | 169° |
| 2026-04-28 09:24 | 33.39528 | 130.59030 | 4991 ft | 83 kts | 169° |
| 2026-04-28 09:24 | 33.38988 | 130.59274 | 5090 ft | 84 kts | 169° |
| 2026-04-28 09:24 | 33.38436 | 130.59525 | 5184 ft | 85 kts | 171° |
| 2026-04-28 09:24 | 33.37876 | 130.59776 | 5279 ft | 86 kts | 171° |
| 2026-04-28 09:25 | 33.37314 | 130.60028 | 5379 ft | 86 kts | 169° |
| 2026-04-28 09:25 | 33.36753 | 130.60281 | 5475 ft | 86 kts | 171° |
| 2026-04-28 09:25 | 33.36186 | 130.60538 | 5572 ft | 87 kts | 170° |
| 2026-04-28 09:25 | 33.35618 | 130.60792 | 5668 ft | 87 kts | 170° |
| 2026-04-28 09:26 | 33.35052 | 130.61050 | 5761 ft | 87 kts | 171° |
| 2026-04-28 09:26 | 33.34477 | 130.61308 | 5852 ft | 88 kts | 170° |
| 2026-04-28 09:26 | 33.33899 | 130.61569 | 5945 ft | 88 kts | 170° |
| 2026-04-28 09:26 | 33.33324 | 130.61827 | 6036 ft | 88 kts | 169° |
| 2026-04-28 09:27 | 33.32168 | 130.62349 | 6218 ft | 89 kts | 169° |
| 2026-04-28 09:27 | 33.31582 | 130.62613 | 6308 ft | 89 kts | 170° |
| 2026-04-28 09:27 | 33.31006 | 130.62874 | 6405 ft | 89 kts | 170° |
| 2026-04-28 09:28 | 33.30421 | 130.63136 | 6493 ft | 89 kts | 170° |
| 2026-04-28 09:28 | 33.29841 | 130.63399 | 6583 ft | 88 kts | 170° |
| 2026-04-28 09:28 | 33.29266 | 130.63658 | 6660 ft | 89 kts | 171° |
| 2026-04-28 09:28 | 33.28684 | 130.63921 | 6746 ft | 89 kts | 172° |
| 2026-04-28 09:29 | 33.28097 | 130.64186 | 6831 ft | 89 kts | 172° |
| 2026-04-28 09:29 | 33.27520 | 130.64445 | 6910 ft | 89 kts | 172° |
| 2026-04-28 09:29 | 33.26932 | 130.64710 | 6983 ft | 90 kts | 173° |
| 2026-04-28 09:29 | 33.26347 | 130.64972 | 7060 ft | 90 kts | 172° |
| 2026-04-28 09:30 | 33.25763 | 130.65236 | 7137 ft | 89 kts | 173° |
| 2026-04-28 09:30 | 33.25183 | 130.65497 | 7215 ft | 88 kts | 174° |
| 2026-04-28 09:30 | 33.24610 | 130.65756 | 7275 ft | 89 kts | 172° |
| 2026-04-28 09:30 | 33.24024 | 130.66019 | 7348 ft | 89 kts | 173° |
| 2026-04-28 09:31 | 33.23451 | 130.66277 | 7426 ft | 88 kts | 173° |
| 2026-04-28 09:31 | 33.22872 | 130.66539 | 7494 ft | 88 kts | 173° |
| 2026-04-28 09:31 | 33.22295 | 130.66797 | 7537 ft | 90 kts | 174° |
| 2026-04-28 09:31 | 33.21685 | 130.67065 | 7544 ft | 95 kts | 173° |
| 2026-04-28 09:32 | 33.21049 | 130.67346 | 7541 ft | 99 kts | 172° |
| 2026-04-28 09:32 | 33.20398 | 130.67636 | 7538 ft | 100 kts | 171° |
| 2026-04-28 09:32 | 33.19741 | 130.67931 | 7542 ft | 100 kts | 171° |
| 2026-04-28 09:32 | 33.19079 | 130.68230 | 7542 ft | 101 kts | 172° |
| 2026-04-28 09:33 | 33.18417 | 130.68527 | 7541 ft | 101 kts | 172° |
| 2026-04-28 09:33 | 33.17757 | 130.68825 | 7543 ft | 101 kts | 172° |
| 2026-04-28 09:33 | 33.17091 | 130.69124 | 7540 ft | 101 kts | 172° |
| 2026-04-28 09:33 | 33.16428 | 130.69423 | 7544 ft | 101 kts | 173° |
| 2026-04-28 09:34 | 33.15776 | 130.69716 | 7545 ft | 101 kts | 172° |
| 2026-04-28 09:34 | 33.15113 | 130.70016 | 7546 ft | 101 kts | 172° |
| 2026-04-28 09:34 | 33.14457 | 130.70314 | 7547 ft | 101 kts | 172° |
| 2026-04-28 09:34 | 33.13793 | 130.70615 | 7548 ft | 102 kts | 172° |
| 2026-04-28 09:35 | 33.13118 | 130.70921 | 7544 ft | 102 kts | 172° |
| 2026-04-28 09:35 | 33.12454 | 130.71223 | 7541 ft | 102 kts | 172° |
| 2026-04-28 09:35 | 33.11795 | 130.71521 | 7541 ft | 101 kts | 171° |
| 2026-04-28 09:35 | 33.11129 | 130.71823 | 7540 ft | 101 kts | 172° |
| 2026-04-28 09:36 | 33.10468 | 130.72121 | 7542 ft | 101 kts | 171° |
| 2026-04-28 09:36 | 33.09806 | 130.72420 | 7541 ft | 102 kts | 171° |
| 2026-04-28 09:36 | 33.09141 | 130.72719 | 7540 ft | 102 kts | 171° |
| 2026-04-28 09:36 | 33.08476 | 130.73019 | 7541 ft | 101 kts | 172° |
| 2026-04-28 09:37 | 33.07817 | 130.73317 | 7539 ft | 101 kts | 172° |
| 2026-04-28 09:37 | 33.07149 | 130.73618 | 7539 ft | 101 kts | 172° |
| 2026-04-28 09:37 | 33.06496 | 130.73909 | 7538 ft | 101 kts | 172° |
| 2026-04-28 09:37 | 33.05832 | 130.74208 | 7536 ft | 101 kts | 172° |
| 2026-04-28 09:38 | 33.05183 | 130.74499 | 7534 ft | 99 kts | 173° |
| 2026-04-28 09:38 | 33.04538 | 130.74791 | 7530 ft | 97 kts | 173° |
| 2026-04-28 09:38 | 33.03914 | 130.75070 | 7527 ft | 96 kts | 172° |
| 2026-04-28 09:38 | 33.03286 | 130.75351 | 7528 ft | 95 kts | 173° |
| 2026-04-28 09:39 | 33.02666 | 130.75645 | 7529 ft | 95 kts | 172° |
| 2026-04-28 09:39 | 33.02043 | 130.75925 | 7528 ft | 95 kts | 173° |
| 2026-04-28 09:39 | 33.01416 | 130.76201 | 7530 ft | 95 kts | 172° |
| 2026-04-28 09:39 | 33.00792 | 130.76477 | 7529 ft | 96 kts | 173° |
| 2026-04-28 09:40 | 33.00164 | 130.76756 | 7528 ft | 96 kts | 172° |
| 2026-04-28 09:40 | 32.99534 | 130.77035 | 7530 ft | 96 kts | 172° |
| 2026-04-28 09:40 | 32.98900 | 130.77319 | 7529 ft | 96 kts | 172° |
| 2026-04-28 09:40 | 32.98268 | 130.77602 | 7531 ft | 97 kts | 171° |
| 2026-04-28 09:41 | 32.97630 | 130.77885 | 7530 ft | 98 kts | 172° |
| 2026-04-28 09:41 | 32.96993 | 130.78171 | 7532 ft | 98 kts | 172° |
| 2026-04-28 09:41 | 32.96351 | 130.78458 | 7535 ft | 98 kts | 172° |
| 2026-04-28 09:41 | 32.95721 | 130.78740 | 7530 ft | 98 kts | 172° |
| 2026-04-28 09:42 | 32.95080 | 130.79025 | 7530 ft | 97 kts | 173° |
| 2026-04-28 09:42 | 32.94443 | 130.79312 | 7532 ft | 98 kts | 172° |
| 2026-04-28 09:42 | 32.93805 | 130.79596 | 7533 ft | 98 kts | 173° |
| 2026-04-28 09:42 | 32.93167 | 130.79881 | 7534 ft | 98 kts | 172° |
| 2026-04-28 09:43 | 32.92525 | 130.80168 | 7534 ft | 98 kts | 172° |
| 2026-04-28 09:43 | 32.91878 | 130.80456 | 7534 ft | 98 kts | 172° |
| 2026-04-28 09:43 | 32.91235 | 130.80743 | 7535 ft | 98 kts | 172° |
| 2026-04-28 09:43 | 32.90599 | 130.81027 | 7534 ft | 98 kts | 172° |
| 2026-04-28 09:44 | 32.89949 | 130.81320 | 7536 ft | 98 kts | 172° |
| 2026-04-28 09:44 | 32.89314 | 130.81602 | 7539 ft | 98 kts | 173° |
| 2026-04-28 09:44 | 32.88665 | 130.81892 | 7536 ft | 98 kts | 172° |
| 2026-04-28 09:44 | 32.88029 | 130.82176 | 7536 ft | 98 kts | 173° |
| 2026-04-28 09:45 | 32.87391 | 130.82461 | 7538 ft | 97 kts | 172° |
| 2026-04-28 09:45 | 32.86746 | 130.82748 | 7538 ft | 97 kts | 172° |
| 2026-04-28 09:45 | 32.86112 | 130.83031 | 7536 ft | 97 kts | 172° |
| 2026-04-28 09:45 | 32.85474 | 130.83316 | 7540 ft | 98 kts | 172° |
| 2026-04-28 09:46 | 32.84827 | 130.83606 | 7537 ft | 98 kts | 172° |
| 2026-04-28 09:46 | 32.84185 | 130.83893 | 7538 ft | 98 kts | 172° |
| 2026-04-28 09:46 | 32.83551 | 130.84187 | 7539 ft | 99 kts | 168° |
| 2026-04-28 09:46 | 32.82917 | 130.84563 | 7537 ft | 101 kts | 165° |
| 2026-04-28 09:47 | 32.82289 | 130.84959 | 7537 ft | 101 kts | 164° |
| 2026-04-28 09:47 | 32.81670 | 130.85347 | 7538 ft | 101 kts | 163° |
| 2026-04-28 09:47 | 32.81040 | 130.85745 | 7539 ft | 101 kts | 163° |
| 2026-04-28 09:47 | 32.80413 | 130.86139 | 7540 ft | 101 kts | 164° |
| 2026-04-28 09:48 | 32.79788 | 130.86534 | 7543 ft | 101 kts | 164° |
| 2026-04-28 09:48 | 32.79171 | 130.86923 | 7543 ft | 101 kts | 165° |
| 2026-04-28 09:48 | 32.78547 | 130.87317 | 7545 ft | 100 kts | 163° |
| 2026-04-28 09:48 | 32.77924 | 130.87706 | 7546 ft | 100 kts | 163° |
| 2026-04-28 09:49 | 32.77310 | 130.88095 | 7545 ft | 101 kts | 164° |
| 2026-04-28 09:49 | 32.76689 | 130.88484 | 7547 ft | 101 kts | 164° |
| 2026-04-28 09:49 | 32.76065 | 130.88876 | 7548 ft | 101 kts | 164° |
| 2026-04-28 09:49 | 32.75441 | 130.89272 | 7547 ft | 102 kts | 164° |
| 2026-04-28 09:50 | 32.74812 | 130.89665 | 7551 ft | 102 kts | 163° |
| 2026-04-28 09:50 | 32.74181 | 130.90063 | 7553 ft | 102 kts | 164° |
| 2026-04-28 09:50 | 32.73556 | 130.90456 | 7552 ft | 102 kts | 164° |
| 2026-04-28 09:50 | 32.72921 | 130.90857 | 7554 ft | 102 kts | 164° |
| 2026-04-28 09:51 | 32.72291 | 130.91252 | 7553 ft | 102 kts | 163° |
| 2026-04-28 09:51 | 32.71661 | 130.91647 | 7555 ft | 101 kts | 164° |
| 2026-04-28 09:51 | 32.71036 | 130.92041 | 7554 ft | 101 kts | 163° |
| 2026-04-28 09:51 | 32.70410 | 130.92436 | 7555 ft | 101 kts | 165° |
| 2026-04-28 09:52 | 32.69783 | 130.92830 | 7553 ft | 102 kts | 165° |
| 2026-04-28 09:52 | 32.69159 | 130.93219 | 7550 ft | 102 kts | 165° |
| 2026-04-28 09:52 | 32.68532 | 130.93616 | 7553 ft | 101 kts | 164° |
| 2026-04-28 09:52 | 32.67903 | 130.94009 | 7559 ft | 102 kts | 163° |
| 2026-04-28 09:53 | 32.67277 | 130.94403 | 7562 ft | 102 kts | 163° |
| 2026-04-28 09:53 | 32.66647 | 130.94798 | 7562 ft | 101 kts | 162° |
| 2026-04-28 09:53 | 32.66024 | 130.95190 | 7564 ft | 102 kts | 164° |
| 2026-04-28 09:53 | 32.65392 | 130.95586 | 7563 ft | 102 kts | 163° |
| 2026-04-28 09:54 | 32.64762 | 130.95982 | 7562 ft | 102 kts | 163° |
| 2026-04-28 09:54 | 32.64137 | 130.96376 | 7564 ft | 102 kts | 164° |
| 2026-04-28 09:54 | 32.63510 | 130.96768 | 7565 ft | 102 kts | 164° |
| 2026-04-28 09:54 | 32.62878 | 130.97165 | 7564 ft | 102 kts | 164° |
| 2026-04-28 09:55 | 32.62249 | 130.97560 | 7567 ft | 102 kts | 163° |
| 2026-04-28 09:55 | 32.61620 | 130.97952 | 7567 ft | 102 kts | 163° |
| 2026-04-28 09:55 | 32.60995 | 130.98344 | 7563 ft | 102 kts | 164° |
| 2026-04-28 09:55 | 32.60364 | 130.98743 | 7570 ft | 101 kts | 164° |
| 2026-04-28 09:56 | 32.59742 | 130.99130 | 7575 ft | 101 kts | 164° |
| 2026-04-28 09:56 | 32.59120 | 130.99521 | 7577 ft | 101 kts | 162° |
| 2026-04-28 09:56 | 32.58493 | 130.99915 | 7579 ft | 102 kts | 164° |
| 2026-04-28 09:56 | 32.57864 | 131.00308 | 7582 ft | 101 kts | 163° |
| 2026-04-28 09:57 | 32.57238 | 131.00700 | 7581 ft | 102 kts | 163° |
| 2026-04-28 09:57 | 32.56610 | 131.01094 | 7582 ft | 102 kts | 163° |
| 2026-04-28 09:57 | 32.55981 | 131.01488 | 7570 ft | 102 kts | 163° |
| 2026-04-28 09:57 | 32.55387 | 131.01982 | 7568 ft | 102 kts | 159° |
| 2026-04-28 09:58 | 32.54784 | 131.02367 | 7563 ft | 98 kts | 166° |
| 2026-04-28 09:58 | 32.54167 | 131.02730 | 7580 ft | 97 kts | 165° |
| 2026-04-28 09:58 | 32.53556 | 131.03088 | 7575 ft | 99 kts | 165° |
| 2026-04-28 09:58 | 32.52945 | 131.03451 | 7585 ft | 99 kts | 165° |
| 2026-04-28 09:59 | 32.52323 | 131.03825 | 7583 ft | 100 kts | 163° |
| 2026-04-28 09:59 | 32.51706 | 131.04202 | 7592 ft | 100 kts | 163° |
| 2026-04-28 09:59 | 32.51084 | 131.04582 | 7595 ft | 101 kts | 164° |
| 2026-04-28 09:59 | 32.50452 | 131.04971 | 7595 ft | 101 kts | 164° |
| 2026-04-28 10:00 | 32.49828 | 131.05356 | 7596 ft | 102 kts | 163° |
| 2026-04-28 10:00 | 32.49201 | 131.05743 | 7591 ft | 102 kts | 164° |
| 2026-04-28 10:00 | 32.48564 | 131.06137 | 7589 ft | 102 kts | 164° |
| 2026-04-28 10:00 | 32.47937 | 131.06526 | 7587 ft | 102 kts | 163° |
| 2026-04-28 10:01 | 32.47308 | 131.06918 | 7583 ft | 102 kts | 164° |
| 2026-04-28 10:01 | 32.46713 | 131.07416 | 7575 ft | 104 kts | 159° |
| 2026-04-28 10:01 | 32.46080 | 131.07808 | 7575 ft | 101 kts | 165° |
| 2026-04-28 10:01 | 32.45448 | 131.08174 | 7575 ft | 101 kts | 164° |
| 2026-04-28 10:02 | 32.44809 | 131.08550 | 7572 ft | 101 kts | 164° |
| 2026-04-28 10:02 | 32.44181 | 131.08925 | 7571 ft | 101 kts | 163° |
| 2026-04-28 10:02 | 32.43558 | 131.09302 | 7571 ft | 101 kts | 165° |
| 2026-04-28 10:02 | 32.42932 | 131.09682 | 7569 ft | 101 kts | 165° |
| 2026-04-28 10:03 | 32.42304 | 131.10066 | 7567 ft | 101 kts | 165° |
| 2026-04-28 10:03 | 32.41680 | 131.10448 | 7567 ft | 101 kts | 165° |
| 2026-04-28 10:03 | 32.41051 | 131.10835 | 7567 ft | 101 kts | 163° |
| 2026-04-28 10:03 | 32.40417 | 131.11229 | 7564 ft | 101 kts | 163° |
| 2026-04-28 10:04 | 32.39807 | 131.11665 | 7563 ft | 108 kts | 145° |
| 2026-04-28 10:04 | 32.39453 | 131.12479 | 7565 ft | 115 kts | 108° |
| 2026-04-28 10:04 | 32.39285 | 131.13405 | 7559 ft | 115 kts | 102° |
| 2026-04-28 10:04 | 32.39131 | 131.14384 | 7550 ft | 122 kts | 102° |
| 2026-04-28 10:05 | 32.38979 | 131.15376 | 7560 ft | 124 kts | 102° |
| 2026-04-28 10:05 | 32.38821 | 131.16389 | 7558 ft | 125 kts | 102° |
| 2026-04-28 10:05 | 32.38662 | 131.17418 | 7556 ft | 126 kts | 102° |
| 2026-04-28 10:05 | 32.38502 | 131.18440 | 7555 ft | 127 kts | 102° |
| 2026-04-28 10:06 | 32.38344 | 131.19467 | 7554 ft | 127 kts | 102° |
| 2026-04-28 10:06 | 32.38185 | 131.20500 | 7553 ft | 127 kts | 102° |
| 2026-04-28 10:06 | 32.38025 | 131.21533 | 7551 ft | 127 kts | 102° |
| 2026-04-28 10:06 | 32.37868 | 131.22556 | 7547 ft | 127 kts | 102° |
| 2026-04-28 10:07 | 32.37707 | 131.23596 | 7545 ft | 127 kts | 102° |
| 2026-04-28 10:07 | 32.37548 | 131.24622 | 7540 ft | 127 kts | 102° |
| 2026-04-28 10:07 | 32.37391 | 131.25648 | 7539 ft | 127 kts | 102° |
| 2026-04-28 10:07 | 32.37232 | 131.26674 | 7538 ft | 126 kts | 102° |
| 2026-04-28 10:08 | 32.37073 | 131.27702 | 7537 ft | 126 kts | 102° |
| 2026-04-28 10:08 | 32.36916 | 131.28722 | 7540 ft | 126 kts | 102° |
| 2026-04-28 10:08 | 32.36759 | 131.29739 | 7541 ft | 126 kts | 102° |
| 2026-04-28 10:08 | 32.36601 | 131.30762 | 7543 ft | 124 kts | 103° |
| 2026-04-28 10:09 | 32.36442 | 131.31773 | 7433 ft | 127 kts | 103° |
| 2026-04-28 10:09 | 32.36279 | 131.32800 | 7325 ft | 127 kts | 102° |
| 2026-04-28 10:09 | 32.36112 | 131.33838 | 7152 ft | 131 kts | 102° |
| 2026-04-28 10:09 | 32.35950 | 131.34862 | 7085 ft | 122 kts | 102° |
| 2026-04-28 10:10 | 32.35793 | 131.35857 | 6947 ft | 121 kts | 102° |
| 2026-04-28 10:10 | 32.35641 | 131.36818 | 6804 ft | 120 kts | 102° |
| 2026-04-28 10:10 | 32.35489 | 131.37790 | 6658 ft | 119 kts | 101° |
| 2026-04-28 10:10 | 32.35336 | 131.38770 | 6499 ft | 120 kts | 101° |
| 2026-04-28 10:11 | 32.35186 | 131.39731 | 6360 ft | 118 kts | 101° |
| 2026-04-28 10:11 | 32.35038 | 131.40681 | 6212 ft | 118 kts | 100° |
| 2026-04-28 10:11 | 32.34794 | 131.41599 | 6039 ft | 117 kts | 128° |
| 2026-04-28 10:11 | 32.34238 | 131.42264 | 5903 ft | 112 kts | 148° |
| 2026-04-28 10:12 | 32.33615 | 131.42804 | 5755 ft | 111 kts | 153° |
| 2026-04-28 10:12 | 32.32975 | 131.43306 | 5618 ft | 110 kts | 154° |
| 2026-04-28 10:12 | 32.32336 | 131.43782 | 5485 ft | 109 kts | 156° |
| 2026-04-28 10:12 | 32.31686 | 131.44255 | 5359 ft | 108 kts | 155° |
| 2026-04-28 10:13 | 32.31041 | 131.44717 | 5237 ft | 109 kts | 157° |
| 2026-04-28 10:13 | 32.30401 | 131.45174 | 5068 ft | 107 kts | 155° |
| 2026-04-28 10:13 | 32.29785 | 131.45613 | 5028 ft | 97 kts | 158° |
| 2026-04-28 10:13 | 32.29219 | 131.46024 | 5029 ft | 94 kts | 157° |
| 2026-04-28 10:14 | 32.28657 | 131.46425 | 5033 ft | 94 kts | 156° |
| 2026-04-28 10:14 | 32.28070 | 131.46840 | 5038 ft | 103 kts | 155° |
| 2026-04-28 10:14 | 32.27437 | 131.47287 | 5036 ft | 109 kts | 155° |
| 2026-04-28 10:14 | 32.26778 | 131.47752 | 5033 ft | 112 kts | 155° |
| 2026-04-28 10:15 | 32.26100 | 131.48230 | 5031 ft | 113 kts | 155° |
| 2026-04-28 10:15 | 32.25421 | 131.48711 | 5028 ft | 114 kts | 155° |
| 2026-04-28 10:15 | 32.24738 | 131.49191 | 5026 ft | 114 kts | 155° |
| 2026-04-28 10:15 | 32.24052 | 131.49686 | 5024 ft | 114 kts | 159° |
| 2026-04-28 10:16 | 32.23369 | 131.50166 | 5026 ft | 114 kts | 155° |
| 2026-04-28 10:16 | 32.22679 | 131.50648 | 5025 ft | 114 kts | 155° |
| 2026-04-28 10:16 | 32.21994 | 131.51128 | 5022 ft | 115 kts | 155° |
| 2026-04-28 10:16 | 32.21310 | 131.51607 | 5024 ft | 114 kts | 155° |
| 2026-04-28 10:17 | 32.20626 | 131.52089 | 5023 ft | 113 kts | 154° |
| 2026-04-28 10:17 | 32.19955 | 131.52560 | 5025 ft | 111 kts | 154° |
| 2026-04-28 10:17 | 32.19292 | 131.53026 | 5024 ft | 109 kts | 154° |
| 2026-04-28 10:17 | 32.18641 | 131.53487 | 5025 ft | 109 kts | 155° |
| 2026-04-28 10:18 | 32.17989 | 131.53944 | 5023 ft | 109 kts | 154° |
| 2026-04-28 10:18 | 32.17332 | 131.54407 | 5022 ft | 109 kts | 155° |
| 2026-04-28 10:18 | 32.16677 | 131.54868 | 5021 ft | 109 kts | 155° |
| 2026-04-28 10:18 | 32.16026 | 131.55325 | 5021 ft | 109 kts | 154° |
| 2026-04-28 10:19 | 32.15370 | 131.55786 | 5020 ft | 109 kts | 155° |
| 2026-04-28 10:19 | 32.14716 | 131.56245 | 5017 ft | 109 kts | 155° |
| 2026-04-28 10:19 | 32.14071 | 131.56700 | 5017 ft | 109 kts | 155° |
| 2026-04-28 10:19 | 32.13414 | 131.57163 | 5017 ft | 108 kts | 155° |
| 2026-04-28 10:20 | 32.12765 | 131.57619 | 5016 ft | 109 kts | 155° |
| 2026-04-28 10:20 | 32.12111 | 131.58078 | 5014 ft | 109 kts | 155° |
| 2026-04-28 10:20 | 32.11463 | 131.58533 | 5016 ft | 109 kts | 155° |
| 2026-04-28 10:20 | 32.10811 | 131.58990 | 5015 ft | 109 kts | 155° |
| 2026-04-28 10:21 | 32.10156 | 131.59450 | 5003 ft | 108 kts | 155° |
| 2026-04-28 10:21 | 32.09507 | 131.59903 | 4961 ft | 108 kts | 154° |
| 2026-04-28 10:21 | 32.08858 | 131.60358 | 4898 ft | 108 kts | 155° |
| 2026-04-28 10:21 | 32.08221 | 131.60802 | 4793 ft | 107 kts | 155° |
| 2026-04-28 10:22 | 32.07582 | 131.61246 | 4665 ft | 107 kts | 155° |
| 2026-04-28 10:22 | 32.06937 | 131.61696 | 4530 ft | 107 kts | 155° |
| 2026-04-28 10:22 | 32.06299 | 131.62141 | 4395 ft | 108 kts | 155° |
| 2026-04-28 10:22 | 32.05650 | 131.62596 | 4268 ft | 107 kts | 155° |
| 2026-04-28 10:23 | 32.05008 | 131.63046 | 4133 ft | 108 kts | 155° |
| 2026-04-28 10:23 | 32.04362 | 131.63487 | 4003 ft | 105 kts | 162° |
| 2026-04-28 10:23 | 32.03672 | 131.63652 | 3803 ft | 100 kts | 185° |
| 2026-04-28 10:23 | 32.02974 | 131.63689 | 3609 ft | 100 kts | 186° |
| 2026-04-28 10:24 | 32.02273 | 131.63711 | 3416 ft | 100 kts | 187° |
| 2026-04-28 10:24 | 32.01587 | 131.63734 | 3233 ft | 99 kts | 187° |
| 2026-04-28 10:24 | 32.00892 | 131.63753 | 3034 ft | 98 kts | 187° |
| 2026-04-28 10:24 | 32.00212 | 131.63771 | 2789 ft | 98 kts | 187° |
| 2026-04-28 10:25 | 31.99508 | 131.63786 | 2483 ft | 105 kts | 186° |
| 2026-04-28 10:25 | 31.98801 | 131.63808 | 2239 ft | 99 kts | 187° |
| 2026-04-28 10:25 | 31.98117 | 131.63827 | 1967 ft | 98 kts | 186° |
| 2026-04-28 10:25 | 31.97512 | 131.63655 | 1811 ft | 82 kts | 217° |
| 2026-04-28 10:26 | 31.97032 | 131.63307 | 1790 ft | 78 kts | 220° |
| 2026-04-28 10:26 | 31.96589 | 131.62972 | 1787 ft | 73 kts | 220° |
| 2026-04-28 10:26 | 31.96175 | 131.62662 | 1783 ft | 69 kts | 220° |
| 2026-04-28 10:26 | 31.95776 | 131.62366 | 1784 ft | 65 kts | 222° |
| 2026-04-28 10:27 | 31.95397 | 131.62085 | 1784 ft | 62 kts | 221° |
| 2026-04-28 10:27 | 31.95033 | 131.61816 | 1784 ft | 60 kts | 222° |
| 2026-04-28 10:27 | 31.94679 | 131.61556 | 1797 ft | 63 kts | 220° |
| 2026-04-28 10:27 | 31.94252 | 131.61235 | 1806 ft | 79 kts | 220° |
| 2026-04-28 10:28 | 31.93764 | 131.60864 | 1803 ft | 84 kts | 219° |
| 2026-04-28 10:28 | 31.93259 | 131.60483 | 1805 ft | 87 kts | 219° |
| 2026-04-28 10:28 | 31.92738 | 131.60092 | 1808 ft | 89 kts | 219° |
| 2026-04-28 10:29 | 31.91675 | 131.59297 | 1805 ft | 91 kts | 219° |
| 2026-04-28 10:29 | 31.91132 | 131.58896 | 1803 ft | 92 kts | 217° |
| 2026-04-28 10:29 | 31.90585 | 131.58521 | 1803 ft | 88 kts | 217° |
| 2026-04-28 10:29 | 31.90053 | 131.58179 | 1801 ft | 85 kts | 216° |
| 2026-04-28 10:30 | 31.89535 | 131.57871 | 1803 ft | 82 kts | 213° |
| 2026-04-28 10:30 | 31.89012 | 131.57587 | 1804 ft | 81 kts | 211° |
| 2026-04-28 10:30 | 31.88490 | 131.57327 | 1807 ft | 81 kts | 209° |
| 2026-04-28 10:30 | 31.87973 | 131.57072 | 1804 ft | 79 kts | 213° |
| 2026-04-28 10:31 | 31.87454 | 131.56821 | 1803 ft | 80 kts | 208° |
| 2026-04-28 10:31 | 31.87045 | 131.56374 | 1685 ft | 83 kts | 251° |
| 2026-04-28 10:31 | 31.87026 | 131.55742 | 1613 ft | 76 kts | 283° |
| 2026-04-28 10:31 | 31.87191 | 131.55167 | 1558 ft | 69 kts | 290° |
| 2026-04-28 10:32 | 31.87357 | 131.54658 | 1517 ft | 65 kts | 288° |
| 2026-04-28 10:32 | 31.87495 | 131.54147 | 1465 ft | 65 kts | 286° |
| 2026-04-28 10:32 | 31.87608 | 131.53633 | 1411 ft | 65 kts | 280° |
| 2026-04-28 10:32 | 31.87658 | 131.53098 | 1359 ft | 66 kts | 276° |
| 2026-04-28 10:33 | 31.87674 | 131.52541 | 1280 ft | 75 kts | 272° |
| 2026-04-28 10:33 | 31.87703 | 131.51875 | 1153 ft | 86 kts | 282° |
| 2026-04-28 10:33 | 31.87801 | 131.51176 | 1023 ft | 89 kts | 277° |
| 2026-04-28 10:33 | 31.87843 | 131.50433 | 874 ft | 91 kts | 278° |
| 2026-04-28 10:34 | 31.87891 | 131.49675 | 696 ft | 88 kts | 279° |
| 2026-04-28 10:34 | 31.87926 | 131.48993 | 505 ft | 87 kts | 273° |
| 2026-04-28 10:34 | 31.87917 | 131.48329 | 416 ft | 79 kts | 269° |
| 2026-04-28 10:34 | 31.87886 | 131.47707 | 336 ft | 76 kts | 266° |
| 2026-04-28 10:35 | 31.87848 | 131.47075 | 223 ft | 78 kts | 273° |
| 2026-04-28 10:35 | 31.87815 | 131.46428 | 128 ft | 80 kts | 272° |
| 2026-04-28 10:35 | 31.87773 | 131.45770 | 47 ft | 76 kts | 271° |
| 2026-04-28 10:35 | 31.87735 | 131.45206 | 27 ft | 61 kts | 262° |
| 2026-04-28 10:36 | 31.87711 | 131.44907 | 27 ft | 21 kts | 266° |
| 2026-04-28 10:36 | 31.87707 | 131.44763 | 27 ft | 15 kts | 265° |